Orion Ocean — S6IE — position and weather

sailwx.info

Track history (hours):
 
Tides and Currents Weather Stations Pressure Air Temp Water Temp Dewpoint Dewpoint Depression Visibility Wind Speed Wind Dir Waves Ship Positions

Orion Ocean

Last reported at 2017-Sep-26 09:04 UTC. Time now 2017-Oct-17 11:25 UTC.
Position N 46°07' W 125°15'.
Warning: this ship's position is 21 days out of date.

Length 200 m; draft 13 m.

Type: Cargo ship. MMSI: 563507000.

Date/timePositionNaut miles runAvg speedWind from/ knotsBaromVisibWave heightAir tempDewpointWater temp
2017-Sep-26 09:04N 46°07' W 125°15'212.0
2017-Sep-26 08:56N 46°07' W 125°13'512.2
2017-Sep-26 08:30N 46°07' W 125°05'612.2
2017-Sep-26 08:00N 46°07' W 124°57'612.2
2017-Sep-26 07:30N 46°06' W 124°48'611.9
2017-Sep-26 07:00N 46°06' W 124°40'611.8
2017-Sep-26 06:30N 46°07' W 124°31'611.9
2017-Sep-26 06:00N 46°08' W 124°23'612.1
2017-Sep-26 05:30N 46°10' W 124°14'5 9.1
2017-Sep-26 05:00N 46°12' W 124°09'7 9.1
2017-Sep-26 04:12N 46°14' W 123°58'211.5
2017-Sep-26 04:00N 46°12' W 123°56'5 9.7
2017-Sep-26 03:30N 46°12' W 123°49'5 9.4
2017-Sep-26 03:00N 46°14' W 123°43'510.6
2017-Sep-26 02:30N 46°15' W 123°36'510.3
2017-Sep-26 01:59N 46°16' W 123°28'4 9.2
2017-Sep-26 01:30N 46°12' W 123°26'4 8.4
2017-Sep-26 01:00N 46°09' W 123°22'5 9.5
2017-Sep-26 00:30N 46°09' W 123°15'5 9.8
2017-Sep-26 00:00N 46°11' W 123°09'510.1
2017-Sep-25 23:30N 46°09' W 123°02'4 8.6
2017-Sep-25 23:00N 46°06' W 122°57'1 1.3
2017-Sep-25 22:25N 46°06' W 122°56'0 0.0
2017-Sep-25 21:55N 46°06' W 122°56'0 0.0
2017-Sep-25 21:28N 46°06' W 122°56'0 0.0
2017-Sep-25 20:58N 46°06' W 122°56'0 0.0
2017-Sep-25 20:01N 46°06' W 122°56'0 0.0
2017-Sep-25 19:58N 46°06' W 122°56'0 0.0
2017-Sep-25 19:13N 46°06' W 122°56'0 0.0
2017-Sep-25 18:58N 46°06' W 122°56'0 0.0
2017-Sep-25 18:28N 46°06' W 122°56'0 0.0
2017-Sep-25 17:52N 46°06' W 122°56'0 0.0
2017-Sep-25 17:28N 46°06' W 122°56'0 0.0
2017-Sep-25 16:52N 46°06' W 122°56'0 0.0
2017-Sep-25 16:19N 46°06' W 122°56'0 0.0
2017-Sep-25 15:58N 46°06' W 122°56'0 0.0
2017-Sep-25 15:28N 46°06' W 122°56'0 0.0
2017-Sep-25 14:55N 46°06' W 122°56'0 0.0
2017-Sep-25 14:28N 46°06' W 122°56'0 0.0
2017-Sep-25 13:58N 46°06' W 122°56'0 0.0
2017-Sep-25 13:28N 46°06' W 122°56'0 0.0
2017-Sep-25 12:58N 46°06' W 122°56'0 0.0
2017-Sep-25 12:16N 46°06' W 122°56'0 0.0
2017-Sep-25 11:52N 46°06' W 122°56'0 0.0
2017-Sep-25 11:28N 46°06' W 122°56'0 0.0
2017-Sep-25 10:58N 46°06' W 122°56'0 0.0
2017-Sep-25 10:28N 46°06' W 122°56'0 0.0
2017-Sep-25 09:58N 46°06' W 122°56'0 0.0
2017-Sep-25 09:22N 46°06' W 122°56'0 0.0
2017-Sep-25 08:58N 46°06' W 122°56'0 0.0
2017-Sep-25 08:16N 46°06' W 122°56'0 0.0
2017-Sep-25 07:52N 46°06' W 122°56'0 0.0
2017-Sep-25 07:28N 46°06' W 122°56'0 0.0
2017-Sep-25 06:58N 46°06' W 122°56'0 0.0
2017-Sep-25 06:28N 46°06' W 122°56'0 0.0
2017-Sep-25 05:58N 46°06' W 122°56'0 0.0
2017-Sep-25 05:28N 46°06' W 122°56'0 0.0
2017-Sep-25 04:58N 46°06' W 122°56'0 0.0
2017-Sep-25 04:28N 46°06' W 122°56'0 0.0
2017-Sep-25 03:40N 46°06' W 122°56'0 0.0
2017-Sep-25 03:28N 46°06' W 122°56'0 0.0
2017-Sep-25 01:58N 46°06' W 122°56'0 0.0
2017-Sep-25 01:28N 46°06' W 122°56'0 0.0
2017-Sep-25 00:58N 46°06' W 122°56'0 0.0
2017-Sep-25 00:28N 46°06' W 122°56'0 0.0
2017-Sep-24 23:58N 46°06' W 122°56'0 0.0
2017-Sep-24 23:28N 46°06' W 122°56'0 0.0
2017-Sep-24 22:55N 46°06' W 122°56'0 0.0
2017-Sep-24 22:28N 46°06' W 122°56'0 0.0
2017-Sep-24 21:58N 46°06' W 122°56'0 0.0
2017-Sep-24 21:22N 46°06' W 122°56'0 0.0
2017-Sep-24 20:55N 46°06' W 122°56'0 0.0
2017-Sep-24 20:28N 46°06' W 122°56'0 0.0
2017-Sep-24 19:58N 46°06' W 122°56'0 0.0
2017-Sep-24 19:19N 46°06' W 122°56'0 0.0
2017-Sep-24 18:58N 46°06' W 122°56'0 0.0
2017-Sep-24 18:16N 46°06' W 122°56'0 0.0
2017-Sep-24 17:55N 46°06' W 122°56'0 0.0
2017-Sep-24 17:19N 46°06' W 122°56'0 0.0
2017-Sep-24 16:58N 46°06' W 122°56'0 0.0
2017-Sep-24 16:25N 46°06' W 122°56'0 0.0
2017-Sep-24 15:55N 46°06' W 122°56'0 0.0
2017-Sep-24 15:25N 46°06' W 122°56'0 0.0
2017-Sep-24 14:58N 46°06' W 122°56'0 0.0
2017-Sep-24 14:28N 46°06' W 122°56'0 0.0
2017-Sep-24 13:55N 46°06' W 122°56'0 0.0
2017-Sep-24 13:28N 46°06' W 122°56'0 0.0
2017-Sep-24 12:58N 46°06' W 122°56'0 0.0
2017-Sep-24 12:16N 46°06' W 122°56'0 0.0
2017-Sep-24 11:31N 46°06' W 122°56'0 0.0
2017-Sep-24 11:25N 46°06' W 122°56'0 0.0
2017-Sep-24 10:58N 46°06' W 122°56'0 0.0
2017-Sep-24 10:25N 46°06' W 122°56'0 0.0
2017-Sep-24 09:58N 46°06' W 122°56'0 0.0
2017-Sep-24 09:25N 46°06' W 122°56'0 0.0
2017-Sep-24 08:58N 46°06' W 122°56'0 0.0
2017-Sep-24 08:22N 46°06' W 122°56'0 0.0
2017-Sep-24 07:58N 46°06' W 122°56'0 0.0
2017-Sep-24 07:28N 46°06' W 122°56'0 0.0
2017-Sep-24 06:52N 46°06' W 122°56'0 0.0
2017-Sep-24 06:28N 46°06' W 122°56'0 0.0
2017-Sep-24 05:58N 46°06' W 122°56'0 0.0
2017-Sep-24 05:28N 46°06' W 122°56'0 0.0
2017-Sep-24 04:49N 46°06' W 122°56'0 0.0
2017-Sep-24 04:28N 46°06' W 122°56'0 0.0
2017-Sep-24 03:58N 46°06' W 122°56'0 0.0
2017-Sep-24 03:22N 46°06' W 122°56'0 0.0
2017-Sep-24 02:58N 46°06' W 122°56'0 0.0
2017-Sep-24 02:22N 46°06' W 122°56'0 0.0
2017-Sep-24 01:55N 46°06' W 122°56'0 0.0
2017-Sep-24 01:28N 46°06' W 122°56'0 0.0
2017-Sep-24 00:58N 46°06' W 122°56'0 0.0
2017-Sep-24 00:31N 46°06' W 122°56'0 0.0
2017-Sep-23 23:58N 46°06' W 122°56'0 0.0
2017-Sep-23 23:28N 46°06' W 122°56'0 0.0
2017-Sep-23 22:55N 46°06' W 122°56'0 0.0
2017-Sep-23 22:25N 46°06' W 122°56'0 0.0
2017-Sep-23 21:58N 46°06' W 122°56'0 0.0
2017-Sep-23 21:28N 46°06' W 122°56'0 0.0
2017-Sep-23 20:28N 46°06' W 122°56'0 0.0
2017-Sep-23 19:58N 46°06' W 122°56'8 0.2
2017-Sep-22 01:56N 46°11' W 123°07'0 0.2
2017-Sep-22 01:17N 46°10' W 123°06'0 0.0
2017-Sep-22 00:59N 46°10' W 123°06'0 0.0
2017-Sep-22 00:26N 46°11' W 123°06'0 0.0
2017-Sep-21 23:56N 46°11' W 123°06'0 0.0
2017-Sep-21 23:29N 46°11' W 123°06'0 0.0
2017-Sep-21 22:53N 46°11' W 123°06'0 0.1
2017-Sep-21 22:29N 46°10' W 123°07'0 0.3
2017-Sep-21 21:59N 46°11' W 123°07'0 0.1
2017-Sep-21 21:29N 46°11' W 123°07'0 0.0
2017-Sep-21 20:56N 46°11' W 123°07'0 0.0
2017-Sep-21 20:20N 46°11' W 123°07'0 0.0
2017-Sep-21 19:59N 46°11' W 123°07'0 0.0
2017-Sep-21 19:26N 46°11' W 123°07'0 0.0
2017-Sep-21 17:56N 46°11' W 123°07'0 0.0
2017-Sep-21 17:20N 46°11' W 123°07'0 0.0
2017-Sep-21 16:59N 46°11' W 123°07'0 0.0
2017-Sep-21 16:29N 46°11' W 123°07'0 0.0
2017-Sep-21 15:56N 46°11' W 123°07'0 0.0
2017-Sep-21 15:26N 46°11' W 123°07'0 0.0
2017-Sep-21 14:53N 46°11' W 123°07'0 0.0
2017-Sep-21 14:23N 46°11' W 123°07'0 0.0
2017-Sep-21 13:50N 46°11' W 123°07'0 0.0
2017-Sep-21 13:29N 46°11' W 123°07'0 0.3
2017-Sep-21 12:59N 46°11' W 123°07'0 0.2
2017-Sep-21 12:29N 46°11' W 123°06'0 0.1
2017-Sep-21 11:59N 46°11' W 123°06'0 0.0
2017-Sep-21 11:29N 46°11' W 123°06'0 0.0
2017-Sep-21 10:50N 46°11' W 123°06'0 0.0
2017-Sep-21 10:23N 46°11' W 123°06'0 0.2
2017-Sep-21 09:59N 46°11' W 123°06'0 0.3
2017-Sep-21 09:23N 46°11' W 123°07'0 0.1
2017-Sep-21 08:59N 46°11' W 123°07'0 0.0
2017-Sep-21 08:29N 46°11' W 123°07'0 0.1
2017-Sep-21 07:59N 46°11' W 123°07'0 0.1
2017-Sep-21 07:29N 46°11' W 123°07'0 0.0
2017-Sep-21 06:59N 46°11' W 123°07'0 0.0
2017-Sep-21 06:29N 46°11' W 123°07'0 0.0
2017-Sep-21 05:56N 46°11' W 123°07'0 0.0
2017-Sep-21 05:26N 46°11' W 123°07'0 0.0
2017-Sep-21 04:56N 46°11' W 123°07'0 0.0
2017-Sep-21 04:29N 46°11' W 123°07'0 0.0
2017-Sep-21 03:56N 46°11' W 123°07'0 0.0
2017-Sep-21 03:26N 46°11' W 123°07'0 0.1
2017-Sep-21 02:59N 46°11' W 123°07'0 0.0
2017-Sep-21 01:38N 46°11' W 123°07'0 0.1
2017-Sep-21 01:29N 46°11' W 123°07'0 0.3
2017-Sep-21 00:53N 46°11' W 123°06'0 0.1
2017-Sep-21 00:17N 46°11' W 123°06'0 0.0
2017-Sep-20 23:53N 46°11' W 123°06'0 0.0
2017-Sep-20 23:29N 46°11' W 123°06'0 0.0
2017-Sep-20 22:59N 46°11' W 123°06'0 0.0
2017-Sep-20 22:29N 46°11' W 123°06'0 0.0
2017-Sep-20 21:56N 46°11' W 123°06'0 0.1
2017-Sep-20 21:29N 46°10' W 123°06'0 0.3
2017-Sep-20 20:56N 46°11' W 123°07'0 0.2
2017-Sep-20 20:26N 46°11' W 123°07'0 0.0
2017-Sep-20 19:59N 46°11' W 123°07'0 0.1
2017-Sep-20 19:29N 46°11' W 123°07'0 0.0
2017-Sep-20 18:59N 46°11' W 123°07'0 0.0
2017-Sep-20 18:20N 46°11' W 123°07'0 0.0
2017-Sep-20 17:59N 46°11' W 123°07'0 0.0
2017-Sep-20 17:26N 46°11' W 123°07'0 0.0
2017-Sep-20 16:59N 46°11' W 123°07'0 0.0
2017-Sep-20 16:29N 46°11' W 123°07'0 0.0
2017-Sep-20 15:59N 46°11' W 123°07'0 0.0
2017-Sep-20 15:29N 46°11' W 123°07'0 0.0
2017-Sep-20 14:56N 46°11' W 123°07'0 0.0
2017-Sep-20 13:59N 46°11' W 123°07'0 0.0
2017-Sep-20 13:29N 46°11' W 123°07'0 0.1
2017-Sep-20 12:53N 46°11' W 123°07'0 0.3
2017-Sep-20 12:29N 46°10' W 123°07'0 0.3
2017-Sep-20 11:59N 46°10' W 123°06'0 0.0
2017-Sep-20 11:29N 46°10' W 123°06'0 0.1
2017-Sep-20 10:59N 46°11' W 123°06'0 0.0
2017-Sep-20 10:29N 46°10' W 123°06'0 0.1
2017-Sep-20 09:59N 46°10' W 123°06'0 0.1
2017-Sep-20 09:29N 46°11' W 123°06'0 0.2
2017-Sep-20 08:59N 46°11' W 123°06'0 0.1
2017-Sep-20 08:26N 46°11' W 123°07'0 0.2
2017-Sep-20 07:53N 46°11' W 123°07'0 0.1
2017-Sep-20 07:29N 46°11' W 123°07'0 0.0
2017-Sep-20 06:59N 46°11' W 123°07'0 0.0
2017-Sep-20 06:29N 46°11' W 123°07'0 0.0
2017-Sep-20 05:59N 46°11' W 123°07'0 0.0
2017-Sep-20 05:29N 46°11' W 123°07'0 0.1
2017-Sep-20 04:56N 46°11' W 123°07'0 0.0
2017-Sep-20 04:23N 46°11' W 123°07'0 0.0
2017-Sep-20 03:35N 46°11' W 123°07'0 0.0
2017-Sep-20 03:11N 46°11' W 123°07'0 0.0
2017-Sep-20 02:56N 46°11' W 123°07'0 0.0
2017-Sep-20 02:29N 46°11' W 123°07'0 0.0
2017-Sep-20 01:53N 46°11' W 123°07'0 0.2
2017-Sep-20 01:26N 46°11' W 123°07'0 0.2
2017-Sep-20 00:59N 46°11' W 123°06'0 0.1
2017-Sep-20 00:29N 46°11' W 123°06'0 0.1
2017-Sep-19 23:59N 46°11' W 123°06'0 0.1
2017-Sep-19 23:29N 46°11' W 123°06'0 0.1
2017-Sep-19 22:59N 46°11' W 123°06'0 0.0
2017-Sep-19 22:29N 46°11' W 123°06'0 0.1
2017-Sep-19 21:59N 46°11' W 123°06'0 0.0
2017-Sep-19 21:29N 46°11' W 123°06'0 0.0
2017-Sep-19 20:59N 46°11' W 123°06'0 0.1
2017-Sep-19 20:26N 46°11' W 123°06'0 0.3
2017-Sep-19 19:59N 46°11' W 123°06'0 0.2
2017-Sep-19 19:29N 46°11' W 123°07'0 0.1
2017-Sep-19 18:59N 46°11' W 123°07'0 0.0
2017-Sep-19 18:23N 46°11' W 123°07'0 0.0
2017-Sep-19 17:59N 46°11' W 123°07'0 0.0
2017-Sep-19 17:26N 46°11' W 123°07'0 0.0
2017-Sep-19 16:59N 46°11' W 123°07'0 0.0
2017-Sep-19 16:29N 46°11' W 123°07'0 0.0
2017-Sep-19 15:59N 46°11' W 123°07'0 0.0
2017-Sep-19 15:29N 46°11' W 123°07'0 0.0
2017-Sep-19 14:56N 46°11' W 123°07'0 0.0
2017-Sep-19 14:29N 46°11' W 123°07'0 0.0
2017-Sep-19 13:59N 46°11' W 123°07'  
2017-Sep-16 09:29N 46°13' W 123°58'  
Track history (hours):
 
Tides and Currents Weather Stations Pressure Air Temp Water Temp Dewpoint Dewpoint Depression Visibility Wind Speed Wind Dir Waves Ship Positions

Orion Ocean

Last reported at 2017-Sep-26 09:04 UTC. Time now 2017-Oct-17 11:25 UTC.
Position N 46°07' W 125°15'.
Warning: this ship's position is 21 days out of date.

Length 200 m; draft 13 m.

Type: Cargo ship. MMSI: 563507000.

Date/timePositionNaut miles runAvg speedWind from/ knotsBaromVisibWave heightAir tempDewpointWater temp
2017-Sep-26 09:04N 46°07' W 125°15'212.0
2017-Sep-26 08:56N 46°07' W 125°13'512.2
2017-Sep-26 08:30N 46°07' W 125°05'612.2
2017-Sep-26 08:00N 46°07' W 124°57'612.2
2017-Sep-26 07:30N 46°06' W 124°48'611.9
2017-Sep-26 07:00N 46°06' W 124°40'611.8
2017-Sep-26 06:30N 46°07' W 124°31'611.9
2017-Sep-26 06:00N 46°08' W 124°23'612.1
2017-Sep-26 05:30N 46°10' W 124°14'5 9.1
2017-Sep-26 05:00N 46°12' W 124°09'7 9.1
2017-Sep-26 04:12N 46°14' W 123°58'211.5
2017-Sep-26 04:00N 46°12' W 123°56'5 9.7
2017-Sep-26 03:30N 46°12' W 123°49'5 9.4
2017-Sep-26 03:00N 46°14' W 123°43'510.6
2017-Sep-26 02:30N 46°15' W 123°36'510.3
2017-Sep-26 01:59N 46°16' W 123°28'4 9.2
2017-Sep-26 01:30N 46°12' W 123°26'4 8.4
2017-Sep-26 01:00N 46°09' W 123°22'5 9.5
2017-Sep-26 00:30N 46°09' W 123°15'5 9.8
2017-Sep-26 00:00N 46°11' W 123°09'510.1
2017-Sep-25 23:30N 46°09' W 123°02'4 8.6
2017-Sep-25 23:00N 46°06' W 122°57'1 1.3
2017-Sep-25 22:25N 46°06' W 122°56'0 0.0
2017-Sep-25 21:55N 46°06' W 122°56'0 0.0
2017-Sep-25 21:28N 46°06' W 122°56'0 0.0
2017-Sep-25 20:58N 46°06' W 122°56'0 0.0
2017-Sep-25 20:01N 46°06' W 122°56'0 0.0
2017-Sep-25 19:58N 46°06' W 122°56'0 0.0
2017-Sep-25 19:13N 46°06' W 122°56'0 0.0
2017-Sep-25 18:58N 46°06' W 122°56'0 0.0
2017-Sep-25 18:28N 46°06' W 122°56'0 0.0
2017-Sep-25 17:52N 46°06' W 122°56'0 0.0
2017-Sep-25 17:28N 46°06' W 122°56'0 0.0
2017-Sep-25 16:52N 46°06' W 122°56'0 0.0
2017-Sep-25 16:19N 46°06' W 122°56'0 0.0
2017-Sep-25 15:58N 46°06' W 122°56'0 0.0
2017-Sep-25 15:28N 46°06' W 122°56'0 0.0
2017-Sep-25 14:55N 46°06' W 122°56'0 0.0
2017-Sep-25 14:28N 46°06' W 122°56'0 0.0
2017-Sep-25 13:58N 46°06' W 122°56'0 0.0
2017-Sep-25 13:28N 46°06' W 122°56'0 0.0
2017-Sep-25 12:58N 46°06' W 122°56'0 0.0
2017-Sep-25 12:16N 46°06' W 122°56'0 0.0
2017-Sep-25 11:52N 46°06' W 122°56'0 0.0
2017-Sep-25 11:28N 46°06' W 122°56'0 0.0
2017-Sep-25 10:58N 46°06' W 122°56'0 0.0
2017-Sep-25 10:28N 46°06' W 122°56'0 0.0
2017-Sep-25 09:58N 46°06' W 122°56'0 0.0
2017-Sep-25 09:22N 46°06' W 122°56'0 0.0
2017-Sep-25 08:58N 46°06' W 122°56'0 0.0
2017-Sep-25 08:16N 46°06' W 122°56'0 0.0
2017-Sep-25 07:52N 46°06' W 122°56'0 0.0
2017-Sep-25 07:28N 46°06' W 122°56'0 0.0
2017-Sep-25 06:58N 46°06' W 122°56'0 0.0
2017-Sep-25 06:28N 46°06' W 122°56'0 0.0
2017-Sep-25 05:58N 46°06' W 122°56'0 0.0
2017-Sep-25 05:28N 46°06' W 122°56'0 0.0
2017-Sep-25 04:58N 46°06' W 122°56'0 0.0
2017-Sep-25 04:28N 46°06' W 122°56'0 0.0
2017-Sep-25 03:40N 46°06' W 122°56'0 0.0
2017-Sep-25 03:28N 46°06' W 122°56'0 0.0
2017-Sep-25 01:58N 46°06' W 122°56'0 0.0
2017-Sep-25 01:28N 46°06' W 122°56'0 0.0
2017-Sep-25 00:58N 46°06' W 122°56'0 0.0
2017-Sep-25 00:28N 46°06' W 122°56'0 0.0
2017-Sep-24 23:58N 46°06' W 122°56'0 0.0
2017-Sep-24 23:28N 46°06' W 122°56'0 0.0
2017-Sep-24 22:55N 46°06' W 122°56'0 0.0
2017-Sep-24 22:28N 46°06' W 122°56'0 0.0
2017-Sep-24 21:58N 46°06' W 122°56'0 0.0
2017-Sep-24 21:22N 46°06' W 122°56'0 0.0
2017-Sep-24 20:55N 46°06' W 122°56'0 0.0
2017-Sep-24 20:28N 46°06' W 122°56'0 0.0
2017-Sep-24 19:58N 46°06' W 122°56'0 0.0
2017-Sep-24 19:19N 46°06' W 122°56'0 0.0
2017-Sep-24 18:58N 46°06' W 122°56'0 0.0
2017-Sep-24 18:16N 46°06' W 122°56'0 0.0
2017-Sep-24 17:55N 46°06' W 122°56'0 0.0
2017-Sep-24 17:19N 46°06' W 122°56'0 0.0
2017-Sep-24 16:58N 46°06' W 122°56'0 0.0
2017-Sep-24 16:25N 46°06' W 122°56'0 0.0
2017-Sep-24 15:55N 46°06' W 122°56'0 0.0
2017-Sep-24 15:25N 46°06' W 122°56'0 0.0
2017-Sep-24 14:58N 46°06' W 122°56'0 0.0
2017-Sep-24 14:28N 46°06' W 122°56'0 0.0
2017-Sep-24 13:55N 46°06' W 122°56'0 0.0
2017-Sep-24 13:28N 46°06' W 122°56'0 0.0
2017-Sep-24 12:58N 46°06' W 122°56'0 0.0
2017-Sep-24 12:16N 46°06' W 122°56'0 0.0
2017-Sep-24 11:31N 46°06' W 122°56'0 0.0
2017-Sep-24 11:25N 46°06' W 122°56'0 0.0
2017-Sep-24 10:58N 46°06' W 122°56'0 0.0
2017-Sep-24 10:25N 46°06' W 122°56'0 0.0
2017-Sep-24 09:58N 46°06' W 122°56'0 0.0
2017-Sep-24 09:25N 46°06' W 122°56'0 0.0
2017-Sep-24 08:58N 46°06' W 122°56'0 0.0
2017-Sep-24 08:22N 46°06' W 122°56'0 0.0
2017-Sep-24 07:58N 46°06' W 122°56'0 0.0
2017-Sep-24 07:28N 46°06' W 122°56'0 0.0
2017-Sep-24 06:52N 46°06' W 122°56'0 0.0
2017-Sep-24 06:28N 46°06' W 122°56'0 0.0
2017-Sep-24 05:58N 46°06' W 122°56'0 0.0
2017-Sep-24 05:28N 46°06' W 122°56'0 0.0
2017-Sep-24 04:49N 46°06' W 122°56'0 0.0
2017-Sep-24 04:28N 46°06' W 122°56'0 0.0
2017-Sep-24 03:58N 46°06' W 122°56'0 0.0
2017-Sep-24 03:22N 46°06' W 122°56'0 0.0
2017-Sep-24 02:58N 46°06' W 122°56'0 0.0
2017-Sep-24 02:22N 46°06' W 122°56'0 0.0
2017-Sep-24 01:55N 46°06' W 122°56'0 0.0
2017-Sep-24 01:28N 46°06' W 122°56'0 0.0
2017-Sep-24 00:58N 46°06' W 122°56'0 0.0
2017-Sep-24 00:31N 46°06' W 122°56'0 0.0
2017-Sep-23 23:58N 46°06' W 122°56'0 0.0
2017-Sep-23 23:28N 46°06' W 122°56'0 0.0
2017-Sep-23 22:55N 46°06' W 122°56'0 0.0
2017-Sep-23 22:25N 46°06' W 122°56'0 0.0
2017-Sep-23 21:58N 46°06' W 122°56'0 0.0
2017-Sep-23 21:28N 46°06' W 122°56'0 0.0
2017-Sep-23 20:28N 46°06' W 122°56'0 0.0
2017-Sep-23 19:58N 46°06' W 122°56'8 0.2
2017-Sep-22 01:56N 46°11' W 123°07'0 0.2
2017-Sep-22 01:17N 46°10' W 123°06'0 0.0
2017-Sep-22 00:59N 46°10' W 123°06'0 0.0
2017-Sep-22 00:26N 46°11' W 123°06'0 0.0
2017-Sep-21 23:56N 46°11' W 123°06'0 0.0
2017-Sep-21 23:29N 46°11' W 123°06'0 0.0
2017-Sep-21 22:53N 46°11' W 123°06'0 0.1
2017-Sep-21 22:29N 46°10' W 123°07'0 0.3
2017-Sep-21 21:59N 46°11' W 123°07'0 0.1
2017-Sep-21 21:29N 46°11' W 123°07'0 0.0
2017-Sep-21 20:56N 46°11' W 123°07'0 0.0
2017-Sep-21 20:20N 46°11' W 123°07'0 0.0
2017-Sep-21 19:59N 46°11' W 123°07'0 0.0
2017-Sep-21 19:26N 46°11' W 123°07'0 0.0
2017-Sep-21 17:56N 46°11' W 123°07'0 0.0
2017-Sep-21 17:20N 46°11' W 123°07'0 0.0
2017-Sep-21 16:59N 46°11' W 123°07'0 0.0
2017-Sep-21 16:29N 46°11' W 123°07'0 0.0
2017-Sep-21 15:56N 46°11' W 123°07'0 0.0
2017-Sep-21 15:26N 46°11' W 123°07'0 0.0
2017-Sep-21 14:53N 46°11' W 123°07'0 0.0
2017-Sep-21 14:23N 46°11' W 123°07'0 0.0
2017-Sep-21 13:50N 46°11' W 123°07'0 0.0
2017-Sep-21 13:29N 46°11' W 123°07'0 0.3
2017-Sep-21 12:59N 46°11' W 123°07'0 0.2
2017-Sep-21 12:29N 46°11' W 123°06'0 0.1
2017-Sep-21 11:59N 46°11' W 123°06'0 0.0
2017-Sep-21 11:29N 46°11' W 123°06'0 0.0
2017-Sep-21 10:50N 46°11' W 123°06'0 0.0
2017-Sep-21 10:23N 46°11' W 123°06'0 0.2
2017-Sep-21 09:59N 46°11' W 123°06'0 0.3
2017-Sep-21 09:23N 46°11' W 123°07'0 0.1
2017-Sep-21 08:59N 46°11' W 123°07'0 0.0
2017-Sep-21 08:29N 46°11' W 123°07'0 0.1
2017-Sep-21 07:59N 46°11' W 123°07'0 0.1
2017-Sep-21 07:29N 46°11' W 123°07'0 0.0
2017-Sep-21 06:59N 46°11' W 123°07'0 0.0
2017-Sep-21 06:29N 46°11' W 123°07'0 0.0
2017-Sep-21 05:56N 46°11' W 123°07'0 0.0
2017-Sep-21 05:26N 46°11' W 123°07'0 0.0
2017-Sep-21 04:56N 46°11' W 123°07'0 0.0
2017-Sep-21 04:29N 46°11' W 123°07'0 0.0
2017-Sep-21 03:56N 46°11' W 123°07'0 0.0
2017-Sep-21 03:26N 46°11' W 123°07'0 0.1
2017-Sep-21 02:59N 46°11' W 123°07'0 0.0
2017-Sep-21 01:38N 46°11' W 123°07'0 0.1
2017-Sep-21 01:29N 46°11' W 123°07'0 0.3
2017-Sep-21 00:53N 46°11' W 123°06'0 0.1
2017-Sep-21 00:17N 46°11' W 123°06'0 0.0
2017-Sep-20 23:53N 46°11' W 123°06'0 0.0
2017-Sep-20 23:29N 46°11' W 123°06'0 0.0
2017-Sep-20 22:59N 46°11' W 123°06'0 0.0
2017-Sep-20 22:29N 46°11' W 123°06'0 0.0
2017-Sep-20 21:56N 46°11' W 123°06'0 0.1
2017-Sep-20 21:29N 46°10' W 123°06'0 0.3
2017-Sep-20 20:56N 46°11' W 123°07'0 0.2
2017-Sep-20 20:26N 46°11' W 123°07'0 0.0
2017-Sep-20 19:59N 46°11' W 123°07'0 0.1
2017-Sep-20 19:29N 46°11' W 123°07'0 0.0
2017-Sep-20 18:59N 46°11' W 123°07'0 0.0
2017-Sep-20 18:20N 46°11' W 123°07'0 0.0
2017-Sep-20 17:59N 46°11' W 123°07'0 0.0
2017-Sep-20 17:26N 46°11' W 123°07'0 0.0
2017-Sep-20 16:59N 46°11' W 123°07'0 0.0
2017-Sep-20 16:29N 46°11' W 123°07'0 0.0
2017-Sep-20 15:59N 46°11' W 123°07'0 0.0
2017-Sep-20 15:29N 46°11' W 123°07'0 0.0
2017-Sep-20 14:56N 46°11' W 123°07'0 0.0
2017-Sep-20 13:59N 46°11' W 123°07'0 0.0
2017-Sep-20 13:29N 46°11' W 123°07'0 0.1
2017-Sep-20 12:53N 46°11' W 123°07'0 0.3
2017-Sep-20 12:29N 46°10' W 123°07'0 0.3
2017-Sep-20 11:59N 46°10' W 123°06'0 0.0
2017-Sep-20 11:29N 46°10' W 123°06'0 0.1
2017-Sep-20 10:59N 46°11' W 123°06'0 0.0
2017-Sep-20 10:29N 46°10' W 123°06'0 0.1
2017-Sep-20 09:59N 46°10' W 123°06'0 0.1
2017-Sep-20 09:29N 46°11' W 123°06'0 0.2
2017-Sep-20 08:59N 46°11' W 123°06'0 0.1
2017-Sep-20 08:26N 46°11' W 123°07'0 0.2
2017-Sep-20 07:53N 46°11' W 123°07'0 0.1
2017-Sep-20 07:29N 46°11' W 123°07'0 0.0
2017-Sep-20 06:59N 46°11' W 123°07'0 0.0
2017-Sep-20 06:29N 46°11' W 123°07'0 0.0
2017-Sep-20 05:59N 46°11' W 123°07'0 0.0
2017-Sep-20 05:29N 46°11' W 123°07'0 0.1
2017-Sep-20 04:56N 46°11' W 123°07'0 0.0
2017-Sep-20 04:23N 46°11' W 123°07'0 0.0
2017-Sep-20 03:35N 46°11' W 123°07'0 0.0
2017-Sep-20 03:11N 46°11' W 123°07'0 0.0
2017-Sep-20 02:56N 46°11' W 123°07'0 0.0
2017-Sep-20 02:29N 46°11' W 123°07'0 0.0
2017-Sep-20 01:53N 46°11' W 123°07'0 0.2
2017-Sep-20 01:26N 46°11' W 123°07'0 0.2
2017-Sep-20 00:59N 46°11' W 123°06'0 0.1
2017-Sep-20 00:29N 46°11' W 123°06'0 0.1
2017-Sep-19 23:59N 46°11' W 123°06'0 0.1
2017-Sep-19 23:29N 46°11' W 123°06'0 0.1
2017-Sep-19 22:59N 46°11' W 123°06'0 0.0
2017-Sep-19 22:29N 46°11' W 123°06'0 0.1
2017-Sep-19 21:59N 46°11' W 123°06'0 0.0
2017-Sep-19 21:29N 46°11' W 123°06'0 0.0
2017-Sep-19 20:59N 46°11' W 123°06'0 0.1
2017-Sep-19 20:26N 46°11' W 123°06'0 0.3
2017-Sep-19 19:59N 46°11' W 123°06'0 0.2
2017-Sep-19 19:29N 46°11' W 123°07'0 0.1
2017-Sep-19 18:59N 46°11' W 123°07'0 0.0
2017-Sep-19 18:23N 46°11' W 123°07'0 0.0
2017-Sep-19 17:59N 46°11' W 123°07'0 0.0
2017-Sep-19 17:26N 46°11' W 123°07'0 0.0
2017-Sep-19 16:59N 46°11' W 123°07'0 0.0
2017-Sep-19 16:29N 46°11' W 123°07'0 0.0
2017-Sep-19 15:59N 46°11' W 123°07'0 0.0
2017-Sep-19 15:29N 46°11' W 123°07'0 0.0
2017-Sep-19 14:56N 46°11' W 123°07'0 0.0
2017-Sep-19 14:29N 46°11' W 123°07'0 0.0
2017-Sep-19 13:59N 46°11' W 123°07'  
2017-Sep-16 09:29N 46°13' W 123°58'  

Dump ship's entire track history